Terminal Aerodrome Forecast
Issued by NWS Topeka, KS

Home | Current Version | Previous Version | Graphics & Text | Print | Product List | Glossary On
Versions: 1 2 3 4 5 6 7 8 9 10 11 12 13 14 15 16 17 18
232
FTUS43 KTOP 231720
TAFTOP
TAF
KTOP 231720Z 2318/2418 17011KT P6SM FEW050
     FM240000 13005KT P6SM FEW250
     FM241400 17007KT P6SM FEW040 SCT250=

USA.gov is the U.S. government's official web portal to all federal, state and local government web resources and services.